sensor_id;sensor_type;location;lat;lon;timestamp;P1;durP1;ratioP1;P2;durP2;ratioP2
56075;SDS011;41951;49.022;12.066;2024-03-23T00:53:44;27.33;;;17.20;;
56075;SDS011;41951;49.022;12.066;2024-03-23T00:56:10;24.50;;;15.75;;
56075;SDS011;41951;49.022;12.066;2024-03-23T00:58:35;26.95;;;16.13;;
56075;SDS011;41951;49.022;12.066;2024-03-23T01:01:01;24.85;;;16.48;;
56075;SDS011;41951;49.022;12.066;2024-03-23T01:03:28;22.77;;;16.17;;
56075;SDS011;41951;49.022;12.066;2024-03-23T01:05:54;26.52;;;16.08;;
56075;SDS011;41951;49.022;12.066;2024-03-23T01:08:24;24.90;;;17.42;;
56075;SDS011;41951;49.022;12.066;2024-03-23T01:10:56;24.13;;;16.50;;
56075;SDS011;41951;49.022;12.066;2024-03-23T01:13:23;25.70;;;16.17;;
56075;SDS011;41951;49.022;12.066;2024-03-23T01:15:52;28.42;;;17.83;;
56075;SDS011;41951;49.022;12.066;2024-03-23T01:18:19;27.98;;;17.50;;
56075;SDS011;41951;49.022;12.066;2024-03-23T01:20:45;25.73;;;17.13;;
56075;SDS011;41951;49.022;12.066;2024-03-23T01:23:11;24.67;;;16.05;;
56075;SDS011;41951;49.022;12.066;2024-03-23T01:25:36;25.25;;;16.65;;
56075;SDS011;41951;49.022;12.066;2024-03-23T01:28:02;26.40;;;16.85;;
56075;SDS011;41951;49.022;12.066;2024-03-23T01:30:30;25.95;;;16.40;;
56075;SDS011;41951;49.022;12.066;2024-03-23T01:32:56;24.67;;;16.27;;
56075;SDS011;41951;49.022;12.066;2024-03-23T01:35:22;24.42;;;16.27;;
56075;SDS011;41951;49.022;12.066;2024-03-23T01:37:48;25.17;;;17.13;;
56075;SDS011;41951;49.022;12.066;2024-03-23T01:40:13;25.33;;;16.23;;
56075;SDS011;41951;49.022;12.066;2024-03-23T01:43:02;27.15;;;16.55;;
56075;SDS011;41951;49.022;12.066;2024-03-23T01:45:34;25.50;;;15.88;;
56075;SDS011;41951;49.022;12.066;2024-03-23T01:48:00;24.30;;;16.52;;
56075;SDS011;41951;49.022;12.066;2024-03-23T01:50:27;25.70;;;16.17;;
56075;SDS011;41951;49.022;12.066;2024-03-23T01:52:53;26.65;;;17.05;;
56075;SDS011;41951;49.022;12.066;2024-03-23T01:55:19;26.50;;;17.00;;
56075;SDS011;41951;49.022;12.066;2024-03-23T01:57:45;24.55;;;16.42;;
56075;SDS011;41951;49.022;12.066;2024-03-23T02:00:11;29.13;;;17.90;;
56075;SDS011;41951;49.022;12.066;2024-03-23T02:02:46;28.30;;;17.75;;
56075;SDS011;41951;49.022;12.066;2024-03-23T02:05:12;25.73;;;16.65;;
56075;SDS011;41951;49.022;12.066;2024-03-23T02:07:39;28.52;;;17.25;;
56075;SDS011;41951;49.022;12.066;2024-03-23T02:10:06;28.02;;;18.08;;
56075;SDS011;41951;49.022;12.066;2024-03-23T02:12:32;28.95;;;18.73;;
56075;SDS011;41951;49.022;12.066;2024-03-23T02:14:58;30.35;;;18.58;;
56075;SDS011;41951;49.022;12.066;2024-03-23T02:17:24;29.23;;;19.92;;
56075;SDS011;41951;49.022;12.066;2024-03-23T02:19:50;30.20;;;19.00;;
56075;SDS011;41951;49.022;12.066;2024-03-23T02:22:16;29.48;;;18.23;;
56075;SDS011;41951;49.022;12.066;2024-03-23T02:24:41;29.10;;;19.00;;
56075;SDS011;41951;49.022;12.066;2024-03-23T02:27:07;27.00;;;18.83;;
56075;SDS011;41951;49.022;12.066;2024-03-23T02:29:33;30.13;;;19.42;;
56075;SDS011;41951;49.022;12.066;2024-03-23T02:31:59;29.92;;;19.42;;
56075;SDS011;41951;49.022;12.066;2024-03-23T02:34:25;29.13;;;19.38;;
56075;SDS011;41951;49.022;12.066;2024-03-23T02:36:50;30.33;;;18.88;;
56075;SDS011;41951;49.022;12.066;2024-03-23T02:39:16;29.52;;;20.10;;
56075;SDS011;41951;49.022;12.066;2024-03-23T02:41:41;29.40;;;20.00;;
56075;SDS011;41951;49.022;12.066;2024-03-23T02:44:07;33.95;;;18.75;;
56075;SDS011;41951;49.022;12.066;2024-03-23T02:46:33;30.05;;;20.73;;
56075;SDS011;41951;49.022;12.066;2024-03-23T02:48:58;34.65;;;19.67;;
56075;SDS011;41951;49.022;12.066;2024-03-23T02:51:24;29.02;;;19.33;;
56075;SDS011;41951;49.022;12.066;2024-03-23T02:53:49;29.27;;;18.63;;
56075;SDS011;41951;49.022;12.066;2024-03-23T02:56:15;29.08;;;18.85;;
56075;SDS011;41951;49.022;12.066;2024-03-23T02:58:42;29.75;;;19.58;;
56075;SDS011;41951;49.022;12.066;2024-03-23T03:01:08;34.35;;;20.05;;
56075;SDS011;41951;49.022;12.066;2024-03-23T03:03:33;26.90;;;18.58;;
56075;SDS011;41951;49.022;12.066;2024-03-23T03:05:59;30.20;;;19.33;;
56075;SDS011;41951;49.022;12.066;2024-03-23T03:08:24;33.00;;;20.90;;
56075;SDS011;41951;49.022;12.066;2024-03-23T03:10:50;32.00;;;19.20;;
56075;SDS011;41951;49.022;12.066;2024-03-23T03:13:16;29.10;;;19.83;;
56075;SDS011;41951;49.022;12.066;2024-03-23T03:15:45;31.52;;;19.73;;
56075;SDS011;41951;49.022;12.066;2024-03-23T03:18:10;31.67;;;19.85;;
56075;SDS011;41951;49.022;12.066;2024-03-23T03:20:39;31.08;;;18.88;;
56075;SDS011;41951;49.022;12.066;2024-03-23T03:23:05;34.00;;;19.77;;
56075;SDS011;41951;49.022;12.066;2024-03-23T03:25:31;27.25;;;19.00;;
56075;SDS011;41951;49.022;12.066;2024-03-23T03:27:57;30.48;;;19.35;;
56075;SDS011;41951;49.022;12.066;2024-03-23T03:30:23;30.58;;;18.33;;
56075;SDS011;41951;49.022;12.066;2024-03-23T03:32:49;28.55;;;18.02;;
56075;SDS011;41951;49.022;12.066;2024-03-23T03:35:16;29.15;;;19.10;;
56075;SDS011;41951;49.022;12.066;2024-03-23T03:37:41;30.08;;;18.48;;
56075;SDS011;41951;49.022;12.066;2024-03-23T03:40:07;27.67;;;18.77;;
56075;SDS011;41951;49.022;12.066;2024-03-23T03:42:34;30.10;;;18.88;;
56075;SDS011;41951;49.022;12.066;2024-03-23T03:45:00;29.20;;;19.45;;
56075;SDS011;41951;49.022;12.066;2024-03-23T03:47:25;27.27;;;17.90;;
56075;SDS011;41951;49.022;12.066;2024-03-23T03:49:51;26.90;;;18.00;;
56075;SDS011;41951;49.022;12.066;2024-03-23T03:52:17;26.15;;;17.02;;
56075;SDS011;41951;49.022;12.066;2024-03-23T03:54:42;24.50;;;16.30;;
56075;SDS011;41951;49.022;12.066;2024-03-23T03:57:08;25.63;;;16.95;;
56075;SDS011;41951;49.022;12.066;2024-03-23T03:59:33;25.00;;;17.73;;
56075;SDS011;41951;49.022;12.066;2024-03-23T04:01:59;27.27;;;16.90;;
56075;SDS011;41951;49.022;12.066;2024-03-23T04:04:25;28.90;;;17.92;;
56075;SDS011;41951;49.022;12.066;2024-03-23T04:06:57;26.50;;;16.92;;
56075;SDS011;41951;49.022;12.066;2024-03-23T04:09:24;27.63;;;17.70;;
56075;SDS011;41951;49.022;12.066;2024-03-23T04:11:49;25.08;;;18.33;;
56075;SDS011;41951;49.022;12.066;2024-03-23T04:14:15;25.10;;;16.55;;
56075;SDS011;41951;49.022;12.066;2024-03-23T04:16:41;26.85;;;17.42;;
56075;SDS011;41951;49.022;12.066;2024-03-23T04:19:06;26.52;;;16.73;;
56075;SDS011;41951;49.022;12.066;2024-03-23T04:21:32;26.45;;;16.83;;
56075;SDS011;41951;49.022;12.066;2024-03-23T04:23:57;26.33;;;16.77;;
56075;SDS011;41951;49.022;12.066;2024-03-23T04:26:23;22.75;;;16.33;;
56075;SDS011;41951;49.022;12.066;2024-03-23T04:28:48;24.13;;;15.80;;
56075;SDS011;41951;49.022;12.066;2024-03-23T04:31:14;25.23;;;15.98;;
56075;SDS011;41951;49.022;12.066;2024-03-23T04:33:40;23.27;;;16.35;;
56075;SDS011;41951;49.022;12.066;2024-03-23T04:36:05;23.77;;;16.00;;
56075;SDS011;41951;49.022;12.066;2024-03-23T04:38:32;25.50;;;16.63;;
56075;SDS011;41951;49.022;12.066;2024-03-23T04:40:58;28.30;;;17.00;;
56075;SDS011;41951;49.022;12.066;2024-03-23T04:43:24;23.17;;;15.85;;
56075;SDS011;41951;49.022;12.066;2024-03-23T04:45:51;25.27;;;16.77;;
56075;SDS011;41951;49.022;12.066;2024-03-23T04:48:17;23.50;;;16.05;;
56075;SDS011;41951;49.022;12.066;2024-03-23T04:53:13;25.33;;;16.67;;
56075;SDS011;41951;49.022;12.066;2024-03-23T04:55:38;23.92;;;16.73;;
56075;SDS011;41951;49.022;12.066;2024-03-23T04:58:04;25.33;;;16.50;;
56075;SDS011;41951;49.022;12.066;2024-03-23T05:00:29;23.63;;;15.45;;
56075;SDS011;41951;49.022;12.066;2024-03-23T05:02:55;26.25;;;16.15;;
56075;SDS011;41951;49.022;12.066;2024-03-23T05:05:20;22.95;;;15.32;;
56075;SDS011;41951;49.022;12.066;2024-03-23T05:07:46;22.95;;;15.27;;
56075;SDS011;41951;49.022;12.066;2024-03-23T05:10:12;20.75;;;14.57;;
56075;SDS011;41951;49.022;12.066;2024-03-23T05:12:38;23.33;;;15.15;;
56075;SDS011;41951;49.022;12.066;2024-03-23T05:15:04;21.40;;;14.88;;
56075;SDS011;41951;49.022;12.066;2024-03-23T05:17:31;20.77;;;14.52;;
56075;SDS011;41951;49.022;12.066;2024-03-23T05:19:57;22.50;;;15.10;;
56075;SDS011;41951;49.022;12.066;2024-03-23T05:22:23;20.05;;;13.75;;
56075;SDS011;41951;49.022;12.066;2024-03-23T05:24:48;21.23;;;14.35;;
56075;SDS011;41951;49.022;12.066;2024-03-23T05:27:14;22.60;;;14.60;;
56075;SDS011;41951;49.022;12.066;2024-03-23T05:29:40;20.13;;;14.07;;
56075;SDS011;41951;49.022;12.066;2024-03-23T05:32:05;21.65;;;13.65;;
56075;SDS011;41951;49.022;12.066;2024-03-23T05:34:31;19.52;;;13.15;;
56075;SDS011;41951;49.022;12.066;2024-03-23T05:36:57;22.15;;;14.18;;
56075;SDS011;41951;49.022;12.066;2024-03-23T05:39:23;18.85;;;13.20;;
56075;SDS011;41951;49.022;12.066;2024-03-23T05:41:49;19.27;;;12.73;;
56075;SDS011;41951;49.022;12.066;2024-03-23T05:44:14;25.67;;;12.95;;
56075;SDS011;41951;49.022;12.066;2024-03-23T05:46:40;23.00;;;13.45;;
56075;SDS011;41951;49.022;12.066;2024-03-23T05:49:06;20.67;;;14.05;;
56075;SDS011;41951;49.022;12.066;2024-03-23T05:51:32;19.52;;;12.90;;
56075;SDS011;41951;49.022;12.066;2024-03-23T05:53:58;20.67;;;12.15;;
56075;SDS011;41951;49.022;12.066;2024-03-23T05:56:24;16.67;;;11.30;;
56075;SDS011;41951;49.022;12.066;2024-03-23T05:58:51;17.63;;;12.55;;
56075;SDS011;41951;49.022;12.066;2024-03-23T06:01:16;18.15;;;11.65;;
56075;SDS011;41951;49.022;12.066;2024-03-23T06:03:42;16.88;;;12.35;;
56075;SDS011;41951;49.022;12.066;2024-03-23T06:06:08;17.20;;;11.98;;
56075;SDS011;41951;49.022;12.066;2024-03-23T06:08:36;19.35;;;12.32;;
56075;SDS011;41951;49.022;12.066;2024-03-23T06:11:04;17.83;;;12.15;;
56075;SDS011;41951;49.022;12.066;2024-03-23T06:13:31;18.40;;;12.18;;
56075;SDS011;41951;49.022;12.066;2024-03-23T06:15:57;19.23;;;11.60;;
56075;SDS011;41951;49.022;12.066;2024-03-23T06:18:23;19.63;;;11.98;;
56075;SDS011;41951;49.022;12.066;2024-03-23T06:20:49;20.17;;;12.38;;
56075;SDS011;41951;49.022;12.066;2024-03-23T06:23:15;18.55;;;11.60;;
56075;SDS011;41951;49.022;12.066;2024-03-23T06:25:42;16.52;;;11.45;;
56075;SDS011;41951;49.022;12.066;2024-03-23T06:28:08;16.52;;;11.20;;
56075;SDS011;41951;49.022;12.066;2024-03-23T06:30:33;17.40;;;11.70;;
56075;SDS011;41951;49.022;12.066;2024-03-23T06:32:59;17.73;;;10.55;;
56075;SDS011;41951;49.022;12.066;2024-03-23T06:35:24;14.10;;;9.93;;
56075;SDS011;41951;49.022;12.066;2024-03-23T06:37:50;16.45;;;10.60;;
56075;SDS011;41951;49.022;12.066;2024-03-23T06:40:16;13.40;;;9.95;;
56075;SDS011;41951;49.022;12.066;2024-03-23T06:42:41;13.73;;;9.60;;
56075;SDS011;41951;49.022;12.066;2024-03-23T06:45:07;16.65;;;10.90;;
56075;SDS011;41951;49.022;12.066;2024-03-23T06:47:33;13.65;;;9.60;;
56075;SDS011;41951;49.022;12.066;2024-03-23T06:50:01;14.35;;;10.00;;
56075;SDS011;41951;49.022;12.066;2024-03-23T06:52:28;18.48;;;10.00;;
56075;SDS011;41951;49.022;12.066;2024-03-23T06:54:54;14.73;;;10.30;;
56075;SDS011;41951;49.022;12.066;2024-03-23T06:57:20;17.88;;;10.27;;
56075;SDS011;41951;49.022;12.066;2024-03-23T06:59:45;12.63;;;9.13;;
56075;SDS011;41951;49.022;12.066;2024-03-23T07:02:11;13.80;;;8.63;;
56075;SDS011;41951;49.022;12.066;2024-03-23T07:04:37;15.80;;;9.25;;
56075;SDS011;41951;49.022;12.066;2024-03-23T07:07:04;14.23;;;9.98;;
56075;SDS011;41951;49.022;12.066;2024-03-23T07:09:30;14.50;;;9.68;;
56075;SDS011;41951;49.022;12.066;2024-03-23T07:11:58;13.05;;;9.18;;
56075;SDS011;41951;49.022;12.066;2024-03-23T07:14:24;14.90;;;9.73;;
56075;SDS011;41951;49.022;12.066;2024-03-23T07:16:50;13.75;;;9.10;;
56075;SDS011;41951;49.022;12.066;2024-03-23T07:19:16;17.58;;;10.30;;
56075;SDS011;41951;49.022;12.066;2024-03-23T07:21:43;14.57;;;9.00;;
56075;SDS011;41951;49.022;12.066;2024-03-23T07:24:09;15.73;;;9.98;;
56075;SDS011;41951;49.022;12.066;2024-03-23T07:26:34;13.77;;;9.30;;
56075;SDS011;41951;49.022;12.066;2024-03-23T07:29:00;13.88;;;9.57;;
56075;SDS011;41951;49.022;12.066;2024-03-23T07:31:26;14.05;;;9.23;;
56075;SDS011;41951;49.022;12.066;2024-03-23T07:33:52;14.10;;;9.27;;
56075;SDS011;41951;49.022;12.066;2024-03-23T07:36:18;14.57;;;9.55;;
56075;SDS011;41951;49.022;12.066;2024-03-23T07:38:53;13.52;;;9.85;;
56075;SDS011;41951;49.022;12.066;2024-03-23T07:41:29;14.35;;;9.20;;
56075;SDS011;41951;49.022;12.066;2024-03-23T07:43:55;13.80;;;8.57;;
56075;SDS011;41951;49.022;12.066;2024-03-23T07:46:21;10.93;;;7.47;;
56075;SDS011;41951;49.022;12.066;2024-03-23T07:48:47;11.13;;;7.15;;
56075;SDS011;41951;49.022;12.066;2024-03-23T07:51:22;12.40;;;7.35;;
56075;SDS011;41951;49.022;12.066;2024-03-23T07:53:48;11.63;;;6.65;;
56075;SDS011;41951;49.022;12.066;2024-03-23T07:56:14;10.35;;;5.75;;
56075;SDS011;41951;49.022;12.066;2024-03-23T07:58:40;6.15;;;3.20;;
56075;SDS011;41951;49.022;12.066;2024-03-23T08:01:08;7.53;;;4.47;;
56075;SDS011;41951;49.022;12.066;2024-03-23T08:03:37;7.57;;;4.30;;
56075;SDS011;41951;49.022;12.066;2024-03-23T08:08:40;4.47;;;2.95;;
56075;SDS011;41951;49.022;12.066;2024-03-23T08:11:06;5.28;;;3.10;;
56075;SDS011;41951;49.022;12.066;2024-03-23T08:13:34;6.30;;;2.92;;
56075;SDS011;41951;49.022;12.066;2024-03-23T08:16:01;5.90;;;3.20;;
56075;SDS011;41951;49.022;12.066;2024-03-23T08:18:28;6.80;;;2.85;;
56075;SDS011;41951;49.022;12.066;2024-03-23T08:23:23;4.57;;;2.30;;
56075;SDS011;41951;49.022;12.066;2024-03-23T08:25:57;4.60;;;2.77;;
56075;SDS011;41951;49.022;12.066;2024-03-23T08:28:23;5.65;;;2.80;;
56075;SDS011;41951;49.022;12.066;2024-03-23T08:30:49;5.97;;;3.33;;
56075;SDS011;41951;49.022;12.066;2024-03-23T08:33:15;4.95;;;2.70;;
56075;SDS011;41951;49.022;12.066;2024-03-23T08:35:41;4.15;;;2.22;;
56075;SDS011;41951;49.022;12.066;2024-03-23T08:38:07;4.00;;;2.55;;
56075;SDS011;41951;49.022;12.066;2024-03-23T08:40:32;4.47;;;2.30;;
56075;SDS011;41951;49.022;12.066;2024-03-23T08:42:58;11.73;;;5.97;;
56075;SDS011;41951;49.022;12.066;2024-03-23T08:45:27;6.22;;;3.00;;
56075;SDS011;41951;49.022;12.066;2024-03-23T08:47:52;3.60;;;2.20;;
56075;SDS011;41951;49.022;12.066;2024-03-23T08:50:18;5.18;;;2.28;;
56075;SDS011;41951;49.022;12.066;2024-03-23T08:52:44;4.45;;;2.75;;
56075;SDS011;41951;49.022;12.066;2024-03-23T08:55:09;5.75;;;2.70;;
56075;SDS011;41951;49.022;12.066;2024-03-23T08:57:35;4.43;;;2.58;;
56075;SDS011;41951;49.022;12.066;2024-03-23T09:00:01;4.70;;;2.60;;
56075;SDS011;41951;49.022;12.066;2024-03-23T09:02:28;5.82;;;2.70;;
56075;SDS011;41951;49.022;12.066;2024-03-23T09:04:53;5.70;;;2.80;;
56075;SDS011;41951;49.022;12.066;2024-03-23T09:07:19;3.88;;;2.47;;
56075;SDS011;41951;49.022;12.066;2024-03-23T09:09:44;4.78;;;2.92;;
56075;SDS011;41951;49.022;12.066;2024-03-23T09:12:10;5.45;;;3.30;;
56075;SDS011;41951;49.022;12.066;2024-03-23T09:14:35;5.47;;;3.10;;
56075;SDS011;41951;49.022;12.066;2024-03-23T09:17:01;5.85;;;3.78;;
56075;SDS011;41951;49.022;12.066;2024-03-23T09:19:28;6.88;;;2.83;;
56075;SDS011;41951;49.022;12.066;2024-03-23T09:21:54;5.63;;;3.08;;
56075;SDS011;41951;49.022;12.066;2024-03-23T09:24:19;5.25;;;2.85;;
56075;SDS011;41951;49.022;12.066;2024-03-23T09:26:46;5.68;;;3.10;;
56075;SDS011;41951;49.022;12.066;2024-03-23T09:29:12;5.25;;;2.95;;
56075;SDS011;41951;49.022;12.066;2024-03-23T09:31:37;4.70;;;3.00;;
56075;SDS011;41951;49.022;12.066;2024-03-23T09:34:03;6.90;;;2.90;;
56075;SDS011;41951;49.022;12.066;2024-03-23T09:36:29;5.13;;;2.75;;
56075;SDS011;41951;49.022;12.066;2024-03-23T09:38:55;5.38;;;2.60;;
56075;SDS011;41951;49.022;12.066;2024-03-23T09:41:20;5.15;;;2.78;;
56075;SDS011;41951;49.022;12.066;2024-03-23T09:43:46;5.28;;;2.90;;
56075;SDS011;41951;49.022;12.066;2024-03-23T09:46:13;5.05;;;2.90;;
56075;SDS011;41951;49.022;12.066;2024-03-23T09:48:39;5.35;;;2.83;;
56075;SDS011;41951;49.022;12.066;2024-03-23T09:51:05;5.28;;;2.85;;
56075;SDS011;41951;49.022;12.066;2024-03-23T09:53:33;4.35;;;2.50;;
56075;SDS011;41951;49.022;12.066;2024-03-23T09:55:59;4.43;;;2.60;;
56075;SDS011;41951;49.022;12.066;2024-03-23T09:58:25;5.07;;;2.78;;
56075;SDS011;41951;49.022;12.066;2024-03-23T10:00:50;4.68;;;2.30;;
56075;SDS011;41951;49.022;12.066;2024-03-23T10:03:16;5.45;;;1.70;;
56075;SDS011;41951;49.022;12.066;2024-03-23T10:05:42;3.28;;;1.73;;
56075;SDS011;41951;49.022;12.066;2024-03-23T10:10:40;3.63;;;1.73;;
56075;SDS011;41951;49.022;12.066;2024-03-23T10:13:08;5.70;;;1.90;;
56075;SDS011;41951;49.022;12.066;2024-03-23T10:15:34;3.72;;;2.13;;
56075;SDS011;41951;49.022;12.066;2024-03-23T10:20:42;3.03;;;1.77;;
56075;SDS011;41951;49.022;12.066;2024-03-23T10:23:18;2.95;;;1.83;;
56075;SDS011;41951;49.022;12.066;2024-03-23T10:25:44;2.90;;;1.73;;
56075;SDS011;41951;49.022;12.066;2024-03-23T10:28:10;6.63;;;1.92;;
56075;SDS011;41951;49.022;12.066;2024-03-23T10:30:36;3.47;;;1.75;;
56075;SDS011;41951;49.022;12.066;2024-03-23T10:33:11;2.88;;;1.50;;
56075;SDS011;41951;49.022;12.066;2024-03-23T10:35:38;1.98;;;1.27;;
56075;SDS011;41951;49.022;12.066;2024-03-23T10:38:07;2.03;;;1.20;;
56075;SDS011;41951;49.022;12.066;2024-03-23T10:40:36;2.42;;;1.10;;
56075;SDS011;41951;49.022;12.066;2024-03-23T10:43:05;1.10;;;1.00;;
56075;SDS011;41951;49.022;12.066;2024-03-23T10:45:33;1.70;;;0.90;;
56075;SDS011;41951;49.022;12.066;2024-03-23T10:47:58;7.38;;;3.97;;
56075;SDS011;41951;49.022;12.066;2024-03-23T10:50:24;1.58;;;1.00;;
56075;SDS011;41951;49.022;12.066;2024-03-23T10:52:50;1.50;;;1.13;;
56075;SDS011;41951;49.022;12.066;2024-03-23T10:55:18;1.35;;;0.90;;
56075;SDS011;41951;49.022;12.066;2024-03-23T10:57:54;2.00;;;1.30;;
56075;SDS011;41951;49.022;12.066;2024-03-23T11:00:20;2.35;;;1.17;;
56075;SDS011;41951;49.022;12.066;2024-03-23T11:02:47;1.90;;;1.20;;
56075;SDS011;41951;49.022;12.066;2024-03-23T11:07:51;1.90;;;1.10;;
56075;SDS011;41951;49.022;12.066;2024-03-23T11:10:28;2.10;;;1.20;;
56075;SDS011;41951;49.022;12.066;2024-03-23T11:12:58;1.08;;;0.90;;
56075;SDS011;41951;49.022;12.066;2024-03-23T11:15:44;2.97;;;1.83;;
56075;SDS011;41951;49.022;12.066;2024-03-23T11:18:09;1.35;;;0.98;;
56075;SDS011;41951;49.022;12.066;2024-03-23T11:20:37;1.25;;;0.90;;
56075;SDS011;41951;49.022;12.066;2024-03-23T11:23:04;1.58;;;1.00;;
56075;SDS011;41951;49.022;12.066;2024-03-23T11:25:30;1.50;;;1.00;;
56075;SDS011;41951;49.022;12.066;2024-03-23T11:28:11;1.58;;;1.10;;
56075;SDS011;41951;49.022;12.066;2024-03-23T11:30:37;0.93;;;0.80;;
56075;SDS011;41951;49.022;12.066;2024-03-23T11:33:03;1.80;;;1.00;;
56075;SDS011;41951;49.022;12.066;2024-03-23T11:35:39;1.63;;;1.10;;
56075;SDS011;41951;49.022;12.066;2024-03-23T11:38:09;1.55;;;1.00;;
56075;SDS011;41951;49.022;12.066;2024-03-23T11:40:45;1.40;;;0.90;;
56075;SDS011;41951;49.022;12.066;2024-03-23T11:43:18;1.63;;;1.10;;
56075;SDS011;41951;49.022;12.066;2024-03-23T11:45:45;2.58;;;1.20;;
56075;SDS011;41951;49.022;12.066;2024-03-23T11:50:45;2.53;;;1.35;;
56075;SDS011;41951;49.022;12.066;2024-03-23T11:53:16;2.45;;;1.40;;
56075;SDS011;41951;49.022;12.066;2024-03-23T11:55:52;3.67;;;1.77;;
56075;SDS011;41951;49.022;12.066;2024-03-23T11:58:22;2.45;;;1.30;;
56075;SDS011;41951;49.022;12.066;2024-03-23T12:00:49;3.90;;;1.35;;
56075;SDS011;41951;49.022;12.066;2024-03-23T12:03:18;2.25;;;1.15;;
56075;SDS011;41951;49.022;12.066;2024-03-23T12:05:50;1.67;;;1.00;;
56075;SDS011;41951;49.022;12.066;2024-03-23T12:08:20;1.40;;;0.90;;
56075;SDS011;41951;49.022;12.066;2024-03-23T12:10:53;1.40;;;0.80;;
56075;SDS011;41951;49.022;12.066;2024-03-23T12:13:32;4.05;;;1.80;;
56075;SDS011;41951;49.022;12.066;2024-03-23T12:16:09;2.13;;;0.98;;
56075;SDS011;41951;49.022;12.066;2024-03-23T12:18:39;2.30;;;1.17;;
56075;SDS011;41951;49.022;12.066;2024-03-23T12:21:06;4.50;;;1.60;;
56075;SDS011;41951;49.022;12.066;2024-03-23T12:23:32;3.08;;;1.17;;
56075;SDS011;41951;49.022;12.066;2024-03-23T12:25:58;2.97;;;1.50;;
56075;SDS011;41951;49.022;12.066;2024-03-23T12:28:24;3.40;;;1.38;;
56075;SDS011;41951;49.022;12.066;2024-03-23T12:30:50;3.85;;;1.50;;
56075;SDS011;41951;49.022;12.066;2024-03-23T12:33:17;5.55;;;1.75;;
56075;SDS011;41951;49.022;12.066;2024-03-23T12:35:42;3.55;;;1.50;;
56075;SDS011;41951;49.022;12.066;2024-03-23T12:38:08;3.13;;;1.52;;
56075;SDS011;41951;49.022;12.066;2024-03-23T12:40:34;3.42;;;1.50;;
56075;SDS011;41951;49.022;12.066;2024-03-23T12:42:59;2.95;;;1.20;;
56075;SDS011;41951;49.022;12.066;2024-03-23T12:45:25;3.50;;;1.52;;
56075;SDS011;41951;49.022;12.066;2024-03-23T12:47:52;7.10;;;3.20;;
56075;SDS011;41951;49.022;12.066;2024-03-23T12:50:19;4.05;;;1.63;;
56075;SDS011;41951;49.022;12.066;2024-03-23T12:52:45;4.32;;;1.90;;
56075;SDS011;41951;49.022;12.066;2024-03-23T12:55:11;3.45;;;1.58;;
56075;SDS011;41951;49.022;12.066;2024-03-23T12:57:36;4.78;;;2.10;;
56075;SDS011;41951;49.022;12.066;2024-03-23T13:00:02;4.03;;;1.90;;
56075;SDS011;41951;49.022;12.066;2024-03-23T13:02:29;4.95;;;1.70;;
56075;SDS011;41951;49.022;12.066;2024-03-23T13:04:55;5.00;;;2.15;;
56075;SDS011;41951;49.022;12.066;2024-03-23T13:07:21;3.22;;;1.90;;
56075;SDS011;41951;49.022;12.066;2024-03-23T13:09:49;5.80;;;1.75;;
56075;SDS011;41951;49.022;12.066;2024-03-23T13:12:19;5.75;;;1.95;;
56075;SDS011;41951;49.022;12.066;2024-03-23T13:14:45;4.80;;;1.88;;
56075;SDS011;41951;49.022;12.066;2024-03-23T13:17:11;3.83;;;1.50;;
56075;SDS011;41951;49.022;12.066;2024-03-23T13:19:37;3.90;;;1.83;;
56075;SDS011;41951;49.022;12.066;2024-03-23T13:22:03;6.32;;;2.00;;
56075;SDS011;41951;49.022;12.066;2024-03-23T13:24:29;4.22;;;1.92;;
56075;SDS011;41951;49.022;12.066;2024-03-23T13:26:56;4.88;;;2.00;;
56075;SDS011;41951;49.022;12.066;2024-03-23T13:29:22;3.95;;;1.98;;
56075;SDS011;41951;49.022;12.066;2024-03-23T13:31:49;5.78;;;1.80;;
56075;SDS011;41951;49.022;12.066;2024-03-23T13:34:15;5.15;;;2.20;;
56075;SDS011;41951;49.022;12.066;2024-03-23T13:36:42;5.30;;;2.45;;
56075;SDS011;41951;49.022;12.066;2024-03-23T13:39:09;4.55;;;2.35;;
56075;SDS011;41951;49.022;12.066;2024-03-23T13:41:38;5.72;;;2.00;;
56075;SDS011;41951;49.022;12.066;2024-03-23T13:44:07;3.95;;;2.13;;
56075;SDS011;41951;49.022;12.066;2024-03-23T13:46:35;3.83;;;1.77;;
56075;SDS011;41951;49.022;12.066;2024-03-23T13:49:01;3.20;;;1.77;;
56075;SDS011;41951;49.022;12.066;2024-03-23T13:51:27;4.65;;;1.85;;
56075;SDS011;41951;49.022;12.066;2024-03-23T13:53:56;4.68;;;2.30;;
56075;SDS011;41951;49.022;12.066;2024-03-23T13:56:22;6.13;;;2.28;;
56075;SDS011;41951;49.022;12.066;2024-03-23T13:58:48;4.80;;;1.73;;
56075;SDS011;41951;49.022;12.066;2024-03-23T14:01:14;4.57;;;1.95;;
56075;SDS011;41951;49.022;12.066;2024-03-23T14:03:40;4.60;;;1.90;;
56075;SDS011;41951;49.022;12.066;2024-03-23T14:06:06;5.38;;;2.28;;
56075;SDS011;41951;49.022;12.066;2024-03-23T14:08:33;5.13;;;2.30;;
56075;SDS011;41951;49.022;12.066;2024-03-23T14:11:01;4.38;;;2.17;;
56075;SDS011;41951;49.022;12.066;2024-03-23T14:13:29;4.90;;;2.53;;
56075;SDS011;41951;49.022;12.066;2024-03-23T14:15:55;5.72;;;2.45;;
56075;SDS011;41951;49.022;12.066;2024-03-23T14:18:20;5.13;;;2.30;;
56075;SDS011;41951;49.022;12.066;2024-03-23T14:20:49;9.65;;;3.33;;
56075;SDS011;41951;49.022;12.066;2024-03-23T14:23:15;4.00;;;2.15;;
56075;SDS011;41951;49.022;12.066;2024-03-23T14:25:41;4.82;;;2.10;;
56075;SDS011;41951;49.022;12.066;2024-03-23T14:28:07;5.85;;;2.15;;
56075;SDS011;41951;49.022;12.066;2024-03-23T14:30:38;6.90;;;2.63;;
56075;SDS011;41951;49.022;12.066;2024-03-23T14:33:04;7.63;;;2.65;;
56075;SDS011;41951;49.022;12.066;2024-03-23T14:35:30;3.75;;;2.00;;
56075;SDS011;41951;49.022;12.066;2024-03-23T14:37:57;7.60;;;2.30;;
56075;SDS011;41951;49.022;12.066;2024-03-23T14:40:23;6.63;;;2.28;;
56075;SDS011;41951;49.022;12.066;2024-03-23T14:42:52;6.88;;;2.35;;
56075;SDS011;41951;49.022;12.066;2024-03-23T14:45:18;4.22;;;1.98;;
56075;SDS011;41951;49.022;12.066;2024-03-23T14:47:44;5.18;;;1.90;;
56075;SDS011;41951;49.022;12.066;2024-03-23T14:50:10;3.88;;;1.90;;
56075;SDS011;41951;49.022;12.066;2024-03-23T14:52:40;5.07;;;2.00;;
56075;SDS011;41951;49.022;12.066;2024-03-23T14:55:06;4.78;;;1.95;;
56075;SDS011;41951;49.022;12.066;2024-03-23T14:57:33;5.22;;;1.80;;
56075;SDS011;41951;49.022;12.066;2024-03-23T15:00:00;5.05;;;1.98;;
56075;SDS011;41951;49.022;12.066;2024-03-23T15:02:25;4.68;;;2.20;;
56075;SDS011;41951;49.022;12.066;2024-03-23T15:04:52;4.93;;;1.90;;
56075;SDS011;41951;49.022;12.066;2024-03-23T15:07:19;7.57;;;2.05;;
56075;SDS011;41951;49.022;12.066;2024-03-23T15:09:44;6.00;;;1.95;;
56075;SDS011;41951;49.022;12.066;2024-03-23T15:12:12;8.73;;;2.28;;
56075;SDS011;41951;49.022;12.066;2024-03-23T15:14:37;6.60;;;2.50;;
56075;SDS011;41951;49.022;12.066;2024-03-23T15:17:03;4.22;;;2.00;;
56075;SDS011;41951;49.022;12.066;2024-03-23T15:19:32;4.30;;;2.28;;
56075;SDS011;41951;49.022;12.066;2024-03-23T15:21:58;6.35;;;2.10;;
56075;SDS011;41951;49.022;12.066;2024-03-23T15:24:23;6.07;;;1.90;;
56075;SDS011;41951;49.022;12.066;2024-03-23T15:26:49;5.45;;;2.08;;
56075;SDS011;41951;49.022;12.066;2024-03-23T15:29:17;4.40;;;1.88;;
56075;SDS011;41951;49.022;12.066;2024-03-23T15:31:43;4.80;;;1.85;;